createdAt,value
2022-09-17T00:00:32.699Z,76.70
2022-09-17T00:03:25.078Z,76.78
2022-09-17T00:06:03.178Z,76.62
2022-09-17T00:08:35.269Z,76.60
2022-09-17T00:11:11.365Z,76.60
2022-09-17T00:13:43.702Z,76.87
2022-09-17T00:16:21.999Z,76.91
2022-09-17T00:18:53.539Z,76.73
2022-09-17T00:21:25.719Z,76.60
2022-09-17T00:23:58.665Z,76.47
2022-09-17T00:26:31.897Z,76.56
2022-09-17T00:29:03.841Z,76.37
2022-09-17T00:31:36.101Z,76.46
2022-09-17T00:34:08.031Z,76.43
2022-09-17T00:36:40.710Z,76.46
2022-09-17T00:39:15.661Z,76.21
2022-09-17T00:41:47.169Z,76.31
2022-09-17T00:44:43.118Z,76.40
2022-09-17T00:47:25.424Z,76.69
2022-09-17T00:50:01.112Z,76.68
2022-09-17T00:52:37.311Z,76.95
2022-09-17T00:55:15.070Z,77.03
2022-09-17T00:57:47.577Z,77.21
2022-09-17T01:00:22.721Z,77.23
2022-09-17T01:02:55.035Z,77.07
2022-09-17T01:05:40.132Z,77.04
2022-09-17T01:08:22.357Z,76.96
2022-09-17T01:11:16.142Z,76.92
2022-09-17T01:13:58.837Z,76.80
2022-09-17T01:16:38.932Z,76.94
2022-09-17T01:19:32.108Z,76.85
2022-09-17T01:22:09.622Z,76.84
2022-09-17T01:25:01.425Z,77.01
2022-09-17T01:27:51.066Z,76.87
2022-09-17T01:30:48.899Z,77.66
2022-09-17T01:33:27.669Z,78.40
2022-09-17T01:36:09.500Z,78.60
2022-09-17T01:38:50.058Z,78.60
2022-09-17T01:41:28.694Z,78.60
2022-09-17T01:44:03.719Z,78.92
2022-09-17T01:46:38.300Z,79.09
2022-09-17T01:49:11.727Z,79.17
2022-09-17T01:51:47.204Z,78.96
2022-09-17T01:54:24.523Z,79.08
2022-09-17T01:57:01.989Z,79.16
2022-09-17T01:59:39.111Z,79.03
2022-09-17T02:02:17.775Z,79.14
2022-09-17T02:04:56.419Z,79.04
2022-09-17T02:07:28.591Z,79.01
2022-09-17T02:10:06.848Z,79.29
2022-09-17T02:12:42.075Z,79.33
2022-09-17T02:15:19.715Z,79.29
2022-09-17T02:17:55.317Z,79.06
2022-09-17T02:20:32.925Z,78.83
2022-09-17T02:23:14.517Z,78.87
2022-09-17T02:25:51.535Z,79.15
2022-09-17T02:28:29.514Z,79.36
2022-09-17T02:31:01.025Z,79.31
2022-09-17T02:33:31.496Z,79.21
2022-09-17T02:36:03.776Z,79.46
2022-09-17T02:38:35.298Z,79.14
2022-09-17T02:41:10.514Z,79.32
2022-09-17T02:43:51.578Z,79.35
2022-09-17T02:46:48.327Z,79.57
2022-09-17T02:49:34.308Z,79.52
2022-09-17T02:52:19.256Z,79.86
2022-09-17T02:55:01.696Z,80.03
2022-09-17T02:57:42.071Z,80.14
2022-09-17T03:00:16.934Z,80.40
2022-09-17T03:02:52.273Z,80.34
2022-09-17T03:05:25.730Z,80.43
2022-09-17T03:08:00.237Z,80.39
2022-09-17T03:10:33.758Z,80.40
2022-09-17T03:13:05.282Z,80.35
2022-09-17T03:15:36.772Z,80.19
2022-09-17T03:18:06.995Z,80.22
2022-09-17T03:20:38.485Z,80.51
2022-09-17T03:23:08.540Z,80.55
2022-09-17T03:25:40.000Z,80.57
2022-09-17T03:28:11.426Z,80.41
2022-09-17T03:30:43.434Z,80.54
2022-09-17T03:33:14.969Z,80.49
2022-09-17T03:35:45.216Z,80.21
2022-09-17T03:38:17.046Z,80.31
2022-09-17T03:40:59.457Z,80.73
2022-09-17T03:43:30.903Z,80.70
2022-09-17T03:46:02.431Z,80.60
2022-09-17T03:48:37.006Z,80.54
2022-09-17T03:51:09.049Z,80.50
2022-09-17T03:53:40.629Z,80.58
2022-09-17T03:56:12.136Z,80.70
2022-09-17T03:58:43.584Z,80.38
2022-09-17T04:01:15.084Z,80.61
2022-09-17T04:03:45.931Z,80.21
2022-09-17T04:06:17.365Z,80.29
2022-09-17T04:08:48.985Z,80.48
2022-09-17T04:11:18.943Z,80.69
2022-09-17T04:13:50.402Z,80.85
2022-09-17T04:16:21.935Z,80.58
2022-09-17T04:18:51.998Z,80.63
2022-09-17T04:21:23.428Z,80.23
2022-09-17T04:23:54.885Z,80.00
2022-09-17T04:26:26.358Z,80.10
2022-09-17T04:28:57.834Z,80.17
2022-09-17T04:31:29.363Z,80.65
2022-09-17T04:33:59.466Z,80.67
2022-09-17T04:36:32.004Z,80.51
2022-09-17T04:39:03.453Z,80.48
2022-09-17T04:41:34.970Z,80.32
2022-09-17T04:44:07.058Z,80.92
2022-09-17T04:46:38.800Z,81.50
2022-09-17T04:49:11.301Z,81.92
2022-09-17T04:51:42.750Z,81.60
2022-09-17T04:54:14.653Z,80.82
2022-09-17T04:56:46.103Z,78.78
2022-09-17T04:59:17.556Z,78.41
2022-09-17T05:01:49.487Z,77.82
2022-09-17T05:04:21.028Z,77.35
2022-09-17T05:06:52.696Z,77.53
2022-09-17T05:09:22.693Z,77.32
2022-09-17T05:11:54.145Z,78.24
2022-09-17T05:14:25.569Z,80.30
2022-09-17T05:16:57.044Z,81.45
2022-09-17T05:19:28.571Z,81.66
2022-09-17T05:21:58.543Z,80.79
2022-09-17T05:24:30.175Z,78.01
2022-09-17T05:27:00.235Z,76.53
2022-09-17T05:29:31.717Z,75.68
2022-09-17T05:32:01.696Z,74.35
2022-09-17T05:34:33.167Z,73.71
2022-09-17T05:37:03.149Z,72.99
2022-09-17T05:39:34.593Z,73.09
2022-09-17T05:42:04.687Z,73.27
2022-09-17T05:44:36.154Z,73.51
2022-09-17T05:47:06.427Z,72.98
2022-09-17T05:49:37.933Z,73.38
2022-09-17T05:52:07.930Z,73.52
2022-09-17T05:54:39.359Z,73.46
2022-09-17T05:57:09.330Z,72.96
2022-09-17T05:59:40.771Z,72.21
2022-09-17T06:02:13.321Z,72.30
2022-09-17T06:04:45.736Z,72.34
2022-09-17T06:07:15.701Z,71.42
2022-09-17T06:09:47.146Z,71.47
2022-09-17T06:12:17.110Z,70.88
2022-09-17T06:14:48.607Z,69.81
2022-09-17T06:17:22.188Z,69.94
2022-09-17T06:19:54.149Z,69.24
2022-09-17T06:22:25.918Z,69.89
2022-09-17T06:24:57.477Z,69.72
2022-09-17T06:27:33.764Z,69.14
2022-09-17T06:30:06.305Z,68.69
2022-09-17T06:32:38.026Z,68.05
2022-09-17T06:35:11.513Z,67.36
2022-09-17T06:37:43.100Z,67.43
2022-09-17T06:40:15.585Z,67.51
2022-09-17T06:42:47.323Z,67.48
2022-09-17T06:45:18.990Z,67.39
2022-09-17T06:47:50.961Z,66.76
2022-09-17T06:50:23.540Z,66.91
2022-09-17T06:52:56.089Z,67.38
2022-09-17T06:55:28.276Z,67.32
2022-09-17T06:58:02.473Z,67.46
2022-09-17T07:00:34.009Z,67.85
2022-09-17T07:03:05.550Z,68.10
2022-09-17T07:05:37.224Z,68.09
2022-09-17T07:08:10.872Z,67.91
2022-09-17T07:10:43.372Z,67.87
2022-09-17T07:13:15.020Z,68.03
2022-09-17T07:15:53.611Z,67.75
2022-09-17T07:18:25.775Z,67.34
2022-09-17T07:20:59.862Z,67.51
2022-09-17T07:23:33.653Z,68.35
2022-09-17T07:26:07.755Z,68.29
2022-09-17T07:28:40.998Z,68.14
2022-09-17T07:31:16.404Z,67.86
2022-09-17T07:33:48.491Z,67.19
2022-09-17T07:36:20.086Z,67.26
2022-09-17T07:38:51.626Z,67.18
2022-09-17T07:41:23.087Z,66.82
2022-09-17T07:43:54.105Z,66.81
2022-09-17T07:46:26.033Z,66.75
2022-09-17T07:48:57.756Z,66.20
2022-09-17T07:51:30.412Z,65.29
2022-09-17T07:54:02.311Z,64.98
2022-09-17T07:56:34.675Z,63.98
2022-09-17T07:59:06.574Z,64.23
2022-09-17T08:01:38.429Z,64.03
2022-09-17T08:04:10.013Z,64.10
2022-09-17T08:06:41.143Z,63.47
2022-09-17T08:09:13.473Z,63.95
2022-09-17T08:11:55.521Z,64.19
2022-09-17T08:14:29.981Z,64.32
2022-09-17T08:17:01.857Z,64.39
2022-09-17T08:19:34.581Z,64.65
2022-09-17T08:22:06.257Z,64.65
2022-09-17T08:24:38.343Z,63.81
2022-09-17T08:27:09.872Z,63.73
2022-09-17T08:29:41.558Z,63.08
2022-09-17T08:32:13.264Z,63.25
2022-09-17T08:34:47.097Z,63.27
2022-09-17T08:37:18.964Z,63.29
2022-09-17T08:39:50.704Z,62.89
2022-09-17T08:42:29.101Z,62.79
2022-09-17T08:45:37.558Z,62.17
2022-09-17T08:48:14.490Z,62.34
2022-09-17T08:50:46.094Z,63.08
2022-09-17T08:53:36.570Z,63.44
2022-09-17T08:56:14.659Z,63.31
2022-09-17T08:59:08.450Z,62.96
2022-09-17T09:01:46.491Z,63.34
2022-09-17T09:04:42.789Z,63.50
2022-09-17T09:07:19.490Z,63.82
2022-09-17T09:09:56.080Z,63.50
2022-09-17T09:12:32.847Z,64.12
2022-09-17T09:15:06.854Z,63.90
2022-09-17T09:17:45.229Z,64.21
2022-09-17T09:20:19.421Z,63.61
2022-09-17T09:22:52.571Z,63.54
2022-09-17T09:25:28.552Z,63.94
2022-09-17T09:28:07.816Z,64.04
2022-09-17T09:30:53.595Z,63.84
2022-09-17T09:33:31.964Z,63.47
2022-09-17T09:36:06.628Z,63.27
2022-09-17T09:38:41.850Z,63.54
2022-09-17T09:41:16.053Z,63.54
2022-09-17T09:44:05.611Z,63.88
2022-09-17T09:47:04.344Z,63.65
2022-09-17T09:49:54.334Z,64.25
2022-09-17T09:52:42.432Z,64.29
2022-09-17T09:55:41.536Z,64.44
2022-09-17T09:58:25.356Z,64.31
2022-09-17T10:00:56.817Z,63.75
2022-09-17T10:03:28.305Z,63.41
2022-09-17T10:06:02.434Z,63.15
2022-09-17T10:08:39.454Z,63.01
2022-09-17T10:11:25.649Z,62.80
2022-09-17T10:14:20.956Z,62.95
2022-09-17T10:17:11.775Z,63.51
2022-09-17T10:19:43.709Z,64.14
2022-09-17T10:22:28.418Z,64.14
2022-09-17T10:25:01.623Z,63.87
2022-09-17T10:27:33.879Z,63.44
2022-09-17T10:30:17.771Z,63.87
2022-09-17T10:33:16.191Z,63.85
2022-09-17T10:35:59.900Z,64.47
2022-09-17T10:38:35.304Z,64.51
2022-09-17T10:41:15.351Z,64.55
2022-09-17T10:43:47.322Z,64.38
2022-09-17T10:46:27.627Z,64.41
2022-09-17T10:49:12.931Z,64.01
2022-09-17T10:51:45.175Z,64.45
2022-09-17T10:54:32.938Z,64.51
2022-09-17T10:57:06.405Z,64.33
2022-09-17T11:00:10.163Z,64.30
2022-09-17T11:03:17.048Z,64.69
2022-09-17T11:06:12.268Z,64.44
2022-09-17T11:08:58.308Z,64.54
2022-09-17T11:11:41.799Z,64.96
2022-09-17T11:14:23.970Z,64.92
2022-09-17T11:17:05.731Z,64.46
2022-09-17T11:19:46.863Z,64.46
2022-09-17T11:22:24.798Z,64.61
2022-09-17T11:25:09.001Z,64.57
2022-09-17T11:27:54.331Z,64.04
2022-09-17T11:30:32.005Z,63.71
2022-09-17T11:33:18.640Z,64.05
2022-09-17T11:35:54.701Z,63.81
2022-09-17T11:38:29.378Z,63.25
2022-09-17T11:41:07.537Z,63.31
2022-09-17T11:43:42.614Z,63.03
2022-09-17T11:46:19.851Z,63.72
2022-09-17T11:48:59.179Z,64.54
2022-09-17T11:51:36.393Z,65.52
2022-09-17T11:54:27.198Z,65.81
2022-09-17T11:57:09.625Z,65.68
2022-09-17T11:59:47.520Z,65.99
2022-09-17T12:02:27.466Z,66.10
2022-09-17T12:05:02.658Z,66.56
2022-09-17T12:07:42.048Z,66.55
2022-09-17T12:10:31.007Z,66.91
2022-09-17T12:13:15.069Z,67.04
2022-09-17T12:15:53.368Z,66.67
2022-09-17T12:18:37.701Z,66.26
2022-09-17T12:21:14.838Z,67.01
2022-09-17T12:23:50.498Z,66.63
2022-09-17T12:26:34.346Z,66.96
2022-09-17T12:29:22.097Z,67.04
2022-09-17T12:32:02.107Z,67.31
2022-09-17T12:34:46.843Z,66.94
2022-09-17T12:37:25.664Z,66.93
2022-09-17T12:40:16.868Z,67.31
2022-09-17T12:43:12.140Z,67.17
2022-09-17T12:45:57.887Z,67.09
2022-09-17T12:49:08.308Z,66.94
2022-09-17T12:51:58.281Z,66.27
2022-09-17T12:54:45.457Z,66.15
2022-09-17T12:57:30.471Z,66.00
2022-09-17T13:00:08.203Z,66.08
2022-09-17T13:02:45.576Z,65.90
2022-09-17T13:05:47.584Z,65.79
2022-09-17T13:08:54.633Z,66.08
2022-09-17T13:11:42.473Z,66.16
2022-09-17T13:14:24.877Z,66.19
2022-09-17T13:17:04.011Z,66.30
2022-09-17T13:19:45.137Z,65.67
2022-09-17T13:22:21.117Z,65.66
2022-09-17T13:25:05.654Z,66.00
2022-09-17T13:27:38.657Z,65.61
2022-09-17T13:30:13.230Z,65.94
2022-09-17T13:32:52.812Z,65.72
2022-09-17T13:35:54.461Z,65.54
2022-09-17T13:38:26.177Z,65.77
2022-09-17T13:41:24.163Z,65.60
2022-09-17T13:43:56.257Z,65.05
2022-09-17T13:46:29.434Z,65.41
2022-09-17T13:49:03.565Z,66.04
2022-09-17T13:51:52.938Z,66.26
2022-09-17T13:54:39.693Z,66.19
2022-09-17T13:57:16.601Z,66.32
2022-09-17T13:59:59.966Z,65.94
2022-09-17T14:02:38.485Z,65.90
2022-09-17T14:05:38.802Z,65.83
2022-09-17T14:08:57.666Z,66.07
2022-09-17T14:11:41.789Z,65.98
2022-09-17T14:14:47.553Z,66.26
2022-09-17T14:17:51.977Z,66.41
2022-09-17T14:20:26.331Z,66.07
2022-09-17T14:23:02.613Z,65.67
2022-09-17T14:25:47.321Z,65.67
2022-09-17T14:28:29.806Z,65.60
2022-09-17T14:31:03.509Z,65.76
2022-09-17T14:33:36.525Z,65.43
2022-09-17T14:36:19.090Z,65.12
2022-09-17T14:38:54.158Z,65.12
2022-09-17T14:41:30.857Z,65.33
2022-09-17T14:44:07.420Z,65.54
2022-09-17T14:46:45.198Z,65.57
2022-09-17T14:49:23.716Z,66.25
2022-09-17T14:51:59.703Z,66.27
2022-09-17T14:54:36.103Z,66.47
2022-09-17T14:57:22.000Z,66.71
2022-09-17T14:59:57.061Z,66.94
2022-09-17T15:02:36.880Z,67.05
2022-09-17T15:05:26.638Z,67.44
2022-09-17T15:08:21.144Z,68.10
2022-09-17T15:10:56.163Z,68.54
2022-09-17T15:13:30.241Z,68.78
2022-09-17T15:16:07.629Z,68.64
2022-09-17T15:18:44.774Z,68.81
2022-09-17T15:21:31.836Z,68.87
2022-09-17T15:24:14.653Z,69.04
2022-09-17T15:26:49.957Z,69.26
2022-09-17T15:29:24.370Z,69.01
2022-09-17T15:31:55.887Z,68.96
2022-09-17T15:34:27.740Z,68.93
2022-09-17T15:37:17.427Z,68.96
2022-09-17T15:39:52.993Z,69.15
2022-09-17T15:42:27.436Z,69.46
2022-09-17T15:45:18.868Z,69.40
2022-09-17T15:47:58.232Z,69.43
2022-09-17T15:50:31.838Z,69.70
2022-09-17T15:53:23.237Z,69.83
2022-09-17T15:56:11.095Z,69.94
2022-09-17T15:58:56.610Z,69.78
2022-09-17T16:01:55.541Z,70.16
2022-09-17T16:04:29.729Z,69.77
2022-09-17T16:07:27.467Z,69.45
2022-09-17T16:09:59.426Z,69.39
2022-09-17T16:12:31.046Z,69.36
2022-09-17T16:15:06.412Z,69.03
2022-09-17T16:17:47.334Z,69.23
2022-09-17T16:20:23.540Z,69.76
2022-09-17T16:22:57.277Z,69.50
2022-09-17T16:25:30.122Z,69.55
2022-09-17T16:28:05.137Z,69.73
2022-09-17T16:30:36.788Z,69.57
2022-09-17T16:33:10.125Z,69.78
2022-09-17T16:35:41.862Z,69.83
2022-09-17T16:38:13.883Z,69.98
2022-09-17T16:40:47.534Z,70.09
2022-09-17T16:43:19.226Z,70.27
2022-09-17T16:46:02.251Z,69.84
2022-09-17T16:48:34.427Z,69.70
2022-09-17T16:51:11.036Z,69.61
2022-09-17T16:53:42.601Z,69.78
2022-09-17T16:56:16.255Z,69.75
2022-09-17T16:58:50.407Z,70.04
2022-09-17T17:01:21.970Z,70.11
2022-09-17T17:03:55.609Z,70.14
2022-09-17T17:06:27.503Z,70.39
2022-09-17T17:09:01.055Z,70.53
2022-09-17T17:11:32.593Z,70.46
2022-09-17T17:14:05.294Z,70.50
2022-09-17T17:16:37.713Z,70.58
2022-09-17T17:19:09.371Z,70.92
2022-09-17T17:21:41.284Z,70.88
2022-09-17T17:24:15.880Z,71.22
2022-09-17T17:26:49.446Z,71.49
2022-09-17T17:29:20.941Z,71.50
2022-09-17T17:31:51.087Z,71.52
2022-09-17T17:34:22.877Z,71.54
2022-09-17T17:36:54.364Z,71.58
2022-09-17T17:39:24.346Z,71.88
2022-09-17T17:41:56.278Z,71.98
2022-09-17T17:44:27.778Z,71.99
2022-09-17T17:46:59.394Z,71.97
2022-09-17T17:49:30.948Z,71.91
2022-09-17T17:52:01.018Z,71.87
2022-09-17T17:54:33.236Z,72.26
2022-09-17T17:57:05.211Z,72.22
2022-09-17T17:59:36.704Z,72.18
2022-09-17T18:02:06.842Z,72.25
2022-09-17T18:04:38.579Z,72.33
2022-09-17T18:07:10.225Z,72.45
2022-09-17T18:09:41.894Z,72.66
2022-09-17T18:12:13.463Z,72.58
2022-09-17T18:14:43.422Z,72.73
2022-09-17T18:17:14.904Z,73.00
2022-09-17T18:19:44.983Z,73.05
2022-09-17T18:22:16.518Z,73.11
2022-09-17T18:24:46.927Z,73.33
2022-09-17T18:27:18.541Z,73.41
2022-09-17T18:30:22.015Z,73.52
2022-09-17T18:32:54.025Z,73.66
2022-09-17T18:35:25.645Z,73.91
2022-09-17T18:37:57.155Z,73.75
2022-09-17T18:40:27.359Z,74.06
2022-09-17T18:42:58.941Z,74.37
2022-09-17T18:45:28.928Z,74.67
2022-09-17T18:48:00.606Z,74.76
2022-09-17T18:50:30.656Z,74.99
2022-09-17T18:53:02.806Z,75.39
2022-09-17T18:55:34.984Z,75.20
2022-09-17T18:58:04.984Z,75.03
2022-09-17T19:00:36.500Z,75.34
2022-09-17T19:03:06.596Z,75.18
2022-09-17T19:05:38.034Z,75.58
2022-09-17T19:08:09.647Z,75.64
2022-09-17T19:10:41.282Z,75.57
2022-09-17T19:13:11.353Z,75.37
2022-09-17T19:15:43.212Z,75.64
2022-09-17T19:18:15.163Z,75.44
2022-09-17T19:20:46.673Z,75.85
2022-09-17T19:23:17.988Z,75.71
2022-09-17T19:25:49.469Z,75.82
2022-09-17T19:28:20.386Z,75.93
2022-09-17T19:30:51.928Z,75.92
2022-09-17T19:33:23.452Z,75.75
2022-09-17T19:35:53.501Z,75.71
2022-09-17T19:38:27.619Z,76.02
2022-09-17T19:41:00.904Z,76.17
2022-09-17T19:43:34.317Z,75.97
2022-09-17T19:46:08.324Z,75.88
2022-09-17T19:48:44.070Z,75.85
2022-09-17T19:51:16.284Z,75.77
2022-09-17T19:53:48.467Z,75.62
2022-09-17T19:56:22.202Z,75.78
2022-09-17T19:58:54.257Z,75.71
2022-09-17T20:01:26.349Z,75.40
2022-09-17T20:03:57.889Z,75.15
2022-09-17T20:06:30.757Z,75.13
2022-09-17T20:09:02.591Z,75.28
2022-09-17T20:11:34.176Z,75.57
2022-09-17T20:14:06.551Z,75.54
2022-09-17T20:16:39.844Z,75.82
2022-09-17T20:19:16.399Z,75.68
2022-09-17T20:21:48.016Z,75.70
2022-09-17T20:24:19.580Z,75.57
2022-09-17T20:26:51.111Z,75.91
2022-09-17T20:29:22.767Z,75.85
2022-09-17T20:31:52.803Z,75.64
2022-09-17T20:34:24.288Z,75.83
2022-09-17T20:37:12.208Z,75.99
2022-09-17T20:39:45.313Z,75.94
2022-09-17T20:42:16.785Z,75.74
2022-09-17T20:44:46.795Z,75.84
2022-09-17T20:47:18.764Z,75.75
2022-09-17T20:49:50.658Z,75.75
2022-09-17T20:52:21.308Z,75.74
2022-09-17T20:54:52.857Z,75.96
2022-09-17T20:57:22.849Z,76.08
2022-09-17T20:59:57.458Z,76.13
2022-09-17T21:02:29.153Z,76.07
2022-09-17T21:05:00.613Z,76.22
2022-09-17T21:07:33.143Z,76.29
2022-09-17T21:10:05.386Z,76.17
2022-09-17T21:12:36.857Z,76.07
2022-09-17T21:15:11.641Z,76.10
2022-09-17T21:17:45.348Z,76.14
2022-09-17T21:20:17.289Z,76.25
2022-09-17T21:22:48.740Z,76.37
2022-09-17T21:25:18.721Z,76.63
2022-09-17T21:27:50.193Z,76.65
2022-09-17T21:30:20.264Z,76.63
2022-09-17T21:32:55.498Z,76.81
2022-09-17T21:35:30.269Z,76.76
2022-09-17T21:38:01.691Z,76.97
2022-09-17T21:40:33.225Z,76.95
2022-09-17T21:43:03.288Z,77.10
2022-09-17T21:45:34.708Z,77.32
2022-09-17T21:48:06.331Z,77.49
2022-09-17T21:50:37.860Z,77.33
2022-09-17T21:53:07.872Z,77.34
2022-09-17T21:55:39.354Z,77.63
2022-09-17T21:58:09.813Z,77.91
2022-09-17T22:00:42.904Z,78.01
2022-09-17T22:03:14.429Z,78.28
2022-09-17T22:05:44.437Z,78.10
2022-09-17T22:08:15.880Z,78.11
2022-09-17T22:10:47.323Z,78.13
2022-09-17T22:13:17.327Z,78.10
2022-09-17T22:15:58.408Z,78.56
2022-09-17T22:18:30.302Z,78.48
2022-09-17T22:21:11.834Z,78.59
2022-09-17T22:23:43.854Z,78.46
2022-09-17T22:26:15.941Z,78.40
2022-09-17T22:28:47.593Z,78.31
2022-09-17T22:31:20.391Z,78.45
2022-09-17T22:33:54.551Z,78.31
2022-09-17T22:36:25.725Z,78.67
2022-09-17T22:38:59.184Z,78.64
2022-09-17T22:41:32.389Z,78.72
2022-09-17T22:44:05.649Z,78.61
2022-09-17T22:46:39.320Z,78.74
2022-09-17T22:49:12.164Z,78.84
2022-09-17T22:51:44.916Z,78.66
2022-09-17T22:54:18.862Z,78.91
2022-09-17T22:56:50.776Z,78.80
2022-09-17T22:59:22.310Z,78.64
2022-09-17T23:01:52.322Z,78.68
2022-09-17T23:04:23.756Z,78.86
2022-09-17T23:06:55.215Z,78.98
2022-09-17T23:09:25.224Z,78.95
2022-09-17T23:11:56.672Z,79.06
2022-09-17T23:14:28.201Z,79.04
2022-09-17T23:16:58.181Z,79.00
2022-09-17T23:19:29.951Z,79.11
2022-09-17T23:22:01.462Z,79.05
2022-09-17T23:24:34.280Z,79.19
2022-09-17T23:27:05.874Z,79.24
2022-09-17T23:29:37.583Z,79.17
2022-09-17T23:32:07.794Z,79.37
2022-09-17T23:34:42.384Z,79.37
2022-09-17T23:37:13.806Z,79.24
2022-09-17T23:39:45.243Z,79.15
2022-09-17T23:42:17.118Z,79.20
2022-09-17T23:44:48.626Z,79.05
2022-09-17T23:47:20.106Z,79.08
2022-09-17T23:49:50.064Z,79.15
2022-09-17T23:52:21.733Z,79.24
2022-09-17T23:54:57.728Z,79.11
2022-09-17T23:57:30.446Z,79.22
